createdAt,value
2023-01-02T00:00:20.665Z,4.47
2023-01-02T00:02:47.600Z,3.70
2023-01-02T00:05:14.082Z,3.70
2023-01-02T00:07:40.391Z,3.90
2023-01-02T00:10:06.956Z,3.45
2023-01-02T00:12:33.377Z,3.70
2023-01-02T00:14:59.705Z,3.88
2023-01-02T00:17:26.083Z,2.80
2023-01-02T00:19:52.411Z,2.90
2023-01-02T00:22:18.726Z,2.50
2023-01-02T00:24:45.066Z,3.13
2023-01-02T00:27:11.430Z,4.00
2023-01-02T00:29:37.744Z,3.00
2023-01-02T00:32:04.233Z,3.53
2023-01-02T00:34:30.567Z,3.70
2023-01-02T00:36:56.895Z,3.45
2023-01-02T00:39:23.442Z,3.67
2023-01-02T00:41:49.759Z,3.97
2023-01-02T00:44:16.102Z,3.63
2023-01-02T00:46:42.427Z,3.60
2023-01-02T00:49:08.781Z,5.38
2023-01-02T00:51:35.064Z,5.93
2023-01-02T00:54:01.440Z,5.05
2023-01-02T00:56:27.777Z,3.60
2023-01-02T00:58:54.145Z,3.72
2023-01-02T01:01:20.555Z,3.53
2023-01-02T01:03:46.955Z,4.78
2023-01-02T01:06:14.456Z,4.10
2023-01-02T01:08:41.103Z,3.17
2023-01-02T01:11:09.211Z,4.25
2023-01-02T01:13:36.381Z,4.20
2023-01-02T01:16:10.578Z,3.55
2023-01-02T01:18:37.943Z,4.03
2023-01-02T01:21:13.573Z,3.97
2023-01-02T01:23:40.138Z,4.05
2023-01-02T01:26:09.060Z,3.05
2023-01-02T01:28:35.839Z,2.92
2023-01-02T01:31:08.140Z,3.33
2023-01-02T01:33:34.581Z,3.22
2023-01-02T01:36:05.576Z,2.85
2023-01-02T01:38:33.075Z,3.28
2023-01-02T01:41:00.004Z,3.15
2023-01-02T01:43:47.125Z,3.58
2023-01-02T01:46:31.673Z,3.15
2023-01-02T01:49:28.831Z,4.38
2023-01-02T01:51:56.885Z,3.80
2023-01-02T01:54:32.336Z,3.22
2023-01-02T01:57:13.161Z,4.00
2023-01-02T01:59:40.422Z,4.10
2023-01-02T02:02:07.636Z,4.32
2023-01-02T02:04:34.598Z,4.13
2023-01-02T02:07:00.994Z,3.90
2023-01-02T02:09:36.940Z,3.42
2023-01-02T02:12:06.518Z,2.90
2023-01-02T02:14:33.658Z,3.30
2023-01-02T02:17:21.563Z,2.90
2023-01-02T02:20:08.388Z,3.22
2023-01-02T02:22:42.763Z,2.35
2023-01-02T02:25:11.954Z,2.70
2023-01-02T02:28:17.284Z,2.58
2023-01-02T02:31:16.174Z,2.63
2023-01-02T02:33:58.576Z,1.20
2023-01-02T02:36:58.008Z,2.65
2023-01-02T02:39:45.989Z,2.55
2023-01-02T02:43:03.135Z,2.25
2023-01-02T02:46:04.886Z,2.10
2023-01-02T02:48:54.463Z,2.95
2023-01-02T02:51:30.175Z,2.42
2023-01-02T02:54:04.035Z,1.92
2023-01-02T02:56:31.463Z,2.50
2023-01-02T02:58:58.314Z,2.17
2023-01-02T03:01:30.406Z,2.00
2023-01-02T03:03:58.021Z,2.40
2023-01-02T03:06:55.383Z,2.60
2023-01-02T03:09:30.603Z,1.67
2023-01-02T03:12:21.727Z,2.17
2023-01-02T03:15:09.649Z,1.95
2023-01-02T03:17:53.777Z,1.45
2023-01-02T03:20:25.064Z,2.17
2023-01-02T03:22:58.777Z,2.03
2023-01-02T03:25:25.610Z,2.30
2023-01-02T03:27:56.177Z,3.05
2023-01-02T03:30:23.265Z,2.80
2023-01-02T03:32:51.497Z,1.65
2023-01-02T03:35:24.022Z,2.30
2023-01-02T03:37:54.529Z,2.08
2023-01-02T03:40:34.048Z,3.15
2023-01-02T03:43:08.719Z,1.98
2023-01-02T03:45:44.280Z,2.30
2023-01-02T03:48:22.843Z,2.17
2023-01-02T03:50:53.008Z,2.13
2023-01-02T03:53:20.725Z,1.75
2023-01-02T03:56:24.840Z,2.05
2023-01-02T03:59:11.944Z,2.83
2023-01-02T04:01:53.622Z,2.30
2023-01-02T04:04:31.995Z,2.30
2023-01-02T04:07:03.143Z,1.85
2023-01-02T04:12:04.943Z,1.90
2023-01-02T04:15:11.445Z,2.10
2023-01-02T04:18:02.474Z,2.42
2023-01-02T04:20:36.119Z,1.75
2023-01-02T04:23:08.927Z,2.03
2023-01-02T04:25:44.926Z,1.88
2023-01-02T04:28:37.900Z,0.90
2023-01-02T04:31:13.265Z,2.30
2023-01-02T04:33:44.666Z,1.92
2023-01-02T04:36:13.248Z,1.73
2023-01-02T04:38:41.309Z,1.83
2023-01-02T04:41:08.181Z,1.70
2023-01-02T04:43:34.499Z,3.28
2023-01-02T04:46:00.970Z,1.90
2023-01-02T04:48:27.368Z,1.90
2023-01-02T04:50:54.809Z,1.65
2023-01-02T04:53:21.504Z,1.98
2023-01-02T04:55:47.872Z,2.10
2023-01-02T04:58:14.258Z,2.55
2023-01-02T05:00:40.635Z,2.17
2023-01-02T05:03:06.978Z,2.20
2023-01-02T05:05:33.380Z,2.22
2023-01-02T05:07:59.761Z,2.13
2023-01-02T05:10:26.087Z,2.35
2023-01-02T05:12:52.393Z,2.28
2023-01-02T05:15:18.820Z,2.40
2023-01-02T05:17:45.132Z,1.67
2023-01-02T05:20:14.139Z,1.70
2023-01-02T05:23:01.113Z,2.80
2023-01-02T05:25:28.596Z,2.30
2023-01-02T05:27:55.677Z,2.20
2023-01-02T05:30:22.537Z,1.73
2023-01-02T05:32:49.165Z,1.60
2023-01-02T05:35:15.778Z,2.10
2023-01-02T05:37:42.345Z,1.77
2023-01-02T05:40:09.485Z,2.42
2023-01-02T05:42:35.873Z,2.38
2023-01-02T05:45:02.477Z,2.08
2023-01-02T05:47:28.794Z,1.63
2023-01-02T05:49:55.166Z,1.80
2023-01-02T05:52:21.526Z,1.73
2023-01-02T05:54:47.855Z,2.30
2023-01-02T05:57:14.159Z,1.80
2023-01-02T05:59:40.472Z,1.92
2023-01-02T06:02:06.837Z,1.67
2023-01-02T06:04:33.213Z,1.40
2023-01-02T06:06:59.548Z,2.00
2023-01-02T06:09:26.100Z,1.95
2023-01-02T06:11:52.499Z,1.73
2023-01-02T06:14:18.865Z,1.85
2023-01-02T06:16:45.264Z,1.42
2023-01-02T06:19:11.671Z,1.80
2023-01-02T06:21:37.980Z,2.15
2023-01-02T06:24:04.451Z,1.92
2023-01-02T06:26:34.936Z,1.60
2023-01-02T06:31:29.499Z,1.73
2023-01-02T06:34:01.589Z,1.90
2023-01-02T06:36:33.276Z,2.00
2023-01-02T06:38:59.710Z,2.17
2023-01-02T06:41:26.479Z,1.50
2023-01-02T06:43:53.085Z,1.33
2023-01-02T06:46:21.797Z,1.70
2023-01-02T06:48:48.339Z,1.73
2023-01-02T06:51:17.947Z,1.17
2023-01-02T06:53:44.642Z,2.35
2023-01-02T06:56:12.516Z,1.20
2023-01-02T06:58:39.315Z,1.40
2023-01-02T07:01:24.843Z,1.77
2023-01-02T07:03:51.405Z,1.42
2023-01-02T07:06:20.334Z,1.88
2023-01-02T07:08:47.297Z,1.60
2023-01-02T07:11:16.469Z,1.27
2023-01-02T07:13:44.169Z,1.90
2023-01-02T07:16:13.659Z,1.15
2023-01-02T07:18:40.201Z,1.00
2023-01-02T07:21:08.262Z,0.35
2023-01-02T07:23:35.048Z,0.10
2023-01-02T07:26:03.806Z,0.30
2023-01-02T07:28:30.994Z,0.17
2023-01-02T07:31:03.239Z,0.10
2023-01-02T07:33:30.392Z,0.10
2023-01-02T07:36:01.236Z,0.10
2023-01-02T07:38:27.918Z,0.20
2023-01-02T07:40:54.447Z,0.28
2023-01-02T07:43:21.441Z,0.10
2023-01-02T07:45:50.424Z,0.20
2023-01-02T07:48:17.680Z,0.10
2023-01-02T07:50:44.018Z,0.00
2023-01-02T07:53:10.402Z,0.50
2023-01-02T07:55:36.788Z,0.50
2023-01-02T07:58:03.138Z,0.75
2023-01-02T08:00:29.482Z,1.17
2023-01-02T08:02:55.976Z,1.40
2023-01-02T08:05:22.355Z,1.40
2023-01-02T08:07:48.907Z,1.33
2023-01-02T08:10:15.296Z,1.05
2023-01-02T08:12:41.631Z,1.00
2023-01-02T08:15:08.348Z,2.38
2023-01-02T08:17:34.790Z,1.60
2023-01-02T08:20:07.081Z,2.75
2023-01-02T08:22:34.253Z,3.08
2023-01-02T08:25:00.594Z,2.97
2023-01-02T08:27:26.959Z,2.30
2023-01-02T08:29:53.250Z,3.40
2023-01-02T08:32:19.570Z,2.50
2023-01-02T08:34:45.860Z,3.03
2023-01-02T08:37:12.162Z,3.33
2023-01-02T08:39:38.473Z,3.63
2023-01-02T08:42:05.169Z,3.92
2023-01-02T08:44:31.521Z,3.08
2023-01-02T08:46:57.821Z,2.75
2023-01-02T08:49:24.155Z,3.13
2023-01-02T08:51:50.552Z,1.73
2023-01-02T08:54:16.971Z,2.90
2023-01-02T08:56:43.355Z,2.70
2023-01-02T08:59:12.012Z,2.28
2023-01-02T09:01:39.124Z,2.75
2023-01-02T09:04:11.901Z,2.40
2023-01-02T09:06:39.238Z,3.00
2023-01-02T09:09:11.588Z,2.67
2023-01-02T09:11:49.922Z,0.73
2023-01-02T09:14:18.289Z,1.63
2023-01-02T09:16:44.756Z,1.45
2023-01-02T09:19:11.149Z,1.15
2023-01-02T09:21:37.507Z,1.33
2023-01-02T09:24:04.128Z,0.98
2023-01-02T09:26:30.685Z,0.70
2023-01-02T09:28:57.071Z,0.85
2023-01-02T09:31:24.024Z,0.88
2023-01-02T09:33:53.773Z,1.05
2023-01-02T09:36:21.013Z,0.88
2023-01-02T09:38:52.557Z,1.00
2023-01-02T09:41:21.632Z,0.88
2023-01-02T09:44:02.270Z,1.55
2023-01-02T09:46:41.871Z,1.05
2023-01-02T09:49:15.096Z,1.00
2023-01-02T09:51:43.843Z,0.95
2023-01-02T09:54:31.393Z,1.45
2023-01-02T09:57:28.881Z,1.25
2023-01-02T10:00:04.259Z,2.30
2023-01-02T10:02:48.737Z,1.33
2023-01-02T10:05:52.017Z,0.85
2023-01-02T10:08:32.783Z,0.50
2023-01-02T10:11:51.765Z,2.67
2023-01-02T10:14:36.075Z,0.52
2023-01-02T10:17:08.173Z,1.20
2023-01-02T10:19:48.408Z,1.33
2023-01-02T10:22:22.846Z,1.45
2023-01-02T10:25:03.220Z,1.05
2023-01-02T10:27:46.717Z,1.00
2023-01-02T10:30:21.757Z,1.13
2023-01-02T10:32:57.141Z,1.00
2023-01-02T10:35:34.262Z,1.20
2023-01-02T10:38:01.682Z,1.15
2023-01-02T10:40:30.143Z,0.90
2023-01-02T10:43:00.135Z,1.17
2023-01-02T10:45:27.078Z,1.67
2023-01-02T10:47:53.414Z,0.85
2023-01-02T10:50:27.130Z,1.60
2023-01-02T10:53:06.557Z,1.30
2023-01-02T10:55:38.159Z,1.23
2023-01-02T10:58:20.281Z,2.03
2023-01-02T11:00:48.330Z,1.38
2023-01-02T11:03:17.685Z,1.98
2023-01-02T11:05:59.201Z,1.55
2023-01-02T11:08:38.294Z,2.30
2023-01-02T11:11:15.694Z,2.00
2023-01-02T11:13:50.354Z,2.13
2023-01-02T11:16:20.855Z,2.33
2023-01-02T11:18:58.827Z,1.65
2023-01-02T11:21:30.311Z,1.95
2023-01-02T11:24:20.043Z,0.90
2023-01-02T11:26:49.474Z,1.00
2023-01-02T11:29:23.537Z,0.73
2023-01-02T11:31:58.444Z,1.23
2023-01-02T11:34:40.462Z,1.50
2023-01-02T11:37:16.913Z,1.48
2023-01-02T11:39:57.893Z,1.27
2023-01-02T11:42:48.025Z,0.98
2023-01-02T11:45:19.671Z,1.42
2023-01-02T11:47:51.004Z,1.15
2023-01-02T11:50:26.591Z,1.10
2023-01-02T11:53:01.168Z,1.52
2023-01-02T11:55:37.488Z,1.10
2023-01-02T11:58:17.342Z,1.25
2023-01-02T12:00:47.719Z,1.13
2023-01-02T12:03:22.109Z,1.20
2023-01-02T12:06:11.888Z,1.10
2023-01-02T12:08:51.313Z,0.98
2023-01-02T12:12:03.575Z,1.40
2023-01-02T12:14:55.061Z,1.15
2023-01-02T12:17:29.156Z,0.90
2023-01-02T12:20:07.441Z,1.50
2023-01-02T12:22:49.004Z,1.38
2023-01-02T12:25:26.685Z,1.17
2023-01-02T12:28:19.161Z,1.00
2023-01-02T12:30:54.239Z,1.30
2023-01-02T12:34:04.372Z,1.90
2023-01-02T12:37:01.866Z,1.75
2023-01-02T12:39:41.433Z,2.08
2023-01-02T12:42:20.353Z,1.77
2023-01-02T12:44:57.505Z,1.70
2023-01-02T12:47:32.715Z,3.70
2023-01-02T12:50:38.450Z,1.90
2023-01-02T12:53:23.629Z,1.83
2023-01-02T12:56:28.311Z,2.05
2023-01-02T12:59:27.903Z,1.80
2023-01-02T13:02:42.344Z,2.03
2023-01-02T13:05:14.104Z,1.70
2023-01-02T13:07:47.613Z,2.00
2023-01-02T13:10:18.676Z,1.85
2023-01-02T13:15:26.016Z,1.92
2023-01-02T13:18:36.222Z,2.60
2023-01-02T13:21:14.751Z,2.08
2023-01-02T13:23:51.693Z,2.10
2023-01-02T13:26:23.652Z,2.30
2023-01-02T13:29:09.643Z,2.42
2023-01-02T13:31:49.259Z,2.60
2023-01-02T13:34:23.040Z,2.28
2023-01-02T13:36:51.365Z,2.65
2023-01-02T13:39:25.612Z,3.30
2023-01-02T13:42:14.046Z,3.17
2023-01-02T13:44:43.659Z,4.03
2023-01-02T13:47:25.803Z,4.20
2023-01-02T13:50:12.900Z,4.78
2023-01-02T13:52:40.232Z,4.15
2023-01-02T13:55:28.530Z,4.20
2023-01-02T13:58:13.257Z,4.28
2023-01-02T14:00:42.332Z,4.63
2023-01-02T14:03:24.278Z,3.95
2023-01-02T14:05:56.921Z,4.43
2023-01-02T14:08:38.376Z,4.20
2023-01-02T14:11:13.391Z,3.88
2023-01-02T14:13:54.485Z,4.85
2023-01-02T14:16:42.771Z,4.18
2023-01-02T14:19:12.013Z,4.65
2023-01-02T14:21:50.483Z,4.63
2023-01-02T14:24:31.103Z,5.85
2023-01-02T14:27:03.923Z,4.63
2023-01-02T14:29:32.547Z,4.90
2023-01-02T14:32:17.677Z,5.82
2023-01-02T14:34:50.185Z,5.07
2023-01-02T14:37:30.994Z,5.57
2023-01-02T14:40:17.216Z,5.10
2023-01-02T14:43:04.665Z,6.82
2023-01-02T14:45:31.406Z,7.30
2023-01-02T14:48:08.444Z,6.82
2023-01-02T14:50:36.997Z,6.70
2023-01-02T14:53:18.444Z,7.32
2023-01-02T14:55:46.129Z,6.45
2023-01-02T14:58:20.030Z,7.47
2023-01-02T15:00:48.925Z,7.90
2023-01-02T15:03:31.563Z,7.57
2023-01-02T15:06:15.485Z,7.53
2023-01-02T15:08:49.040Z,6.35
2023-01-02T15:11:43.439Z,6.22
2023-01-02T15:14:20.411Z,6.43
2023-01-02T15:16:55.784Z,7.70
2023-01-02T15:19:26.270Z,6.40
2023-01-02T15:21:54.252Z,7.43
2023-01-02T15:24:27.089Z,7.20
2023-01-02T15:26:53.521Z,7.03
2023-01-02T15:29:24.148Z,6.82
2023-01-02T15:31:55.794Z,6.82
2023-01-02T15:34:30.914Z,7.28
2023-01-02T15:37:01.965Z,5.88
2023-01-02T15:42:26.098Z,6.45
2023-01-02T15:45:11.314Z,7.22
2023-01-02T15:47:47.687Z,6.15
2023-01-02T15:50:26.042Z,5.45
2023-01-02T15:53:02.975Z,5.93
2023-01-02T15:55:38.999Z,5.78
2023-01-02T15:58:14.416Z,6.93
2023-01-02T16:00:41.430Z,5.47
2023-01-02T16:03:10.245Z,5.97
2023-01-02T16:05:51.011Z,4.95
2023-01-02T16:08:23.815Z,5.00
2023-01-02T16:11:00.898Z,4.95
2023-01-02T16:13:52.921Z,4.72
2023-01-02T16:16:21.425Z,3.65
2023-01-02T16:18:58.652Z,4.65
2023-01-02T16:21:30.679Z,4.45
2023-01-02T16:23:58.221Z,5.13
2023-01-02T16:26:31.565Z,4.30
2023-01-02T16:28:58.207Z,4.35
2023-01-02T16:31:24.948Z,4.90
2023-01-02T16:33:51.620Z,4.05
2023-01-02T16:36:24.595Z,4.22
2023-01-02T16:38:59.840Z,4.78
2023-01-02T16:41:33.672Z,5.03
2023-01-02T16:44:04.212Z,5.53
2023-01-02T16:46:31.025Z,5.40
2023-01-02T16:49:03.119Z,5.10
2023-01-02T16:51:31.897Z,5.88
2023-01-02T16:53:58.266Z,4.97
2023-01-02T16:56:24.801Z,5.00
2023-01-02T16:58:51.127Z,5.35
2023-01-02T17:01:24.813Z,4.55
2023-01-02T17:03:51.180Z,5.57
2023-01-02T17:06:18.919Z,5.95
2023-01-02T17:08:45.370Z,6.07
2023-01-02T17:11:17.410Z,7.28
2023-01-02T17:13:44.299Z,6.68
2023-01-02T17:16:11.025Z,6.35
2023-01-02T17:18:37.435Z,7.40
2023-01-02T17:21:04.117Z,6.63
2023-01-02T17:23:30.840Z,6.22
2023-01-02T17:25:57.153Z,7.22
2023-01-02T17:28:23.719Z,7.55
2023-01-02T17:30:50.198Z,6.88
2023-01-02T17:33:17.323Z,6.00
2023-01-02T17:35:48.381Z,4.35
2023-01-02T17:40:41.731Z,3.58
2023-01-02T17:43:08.107Z,3.75
2023-01-02T17:45:34.667Z,2.75
2023-01-02T17:48:10.129Z,2.08
2023-01-02T17:50:37.903Z,3.20
2023-01-02T17:53:04.218Z,2.13
2023-01-02T17:55:30.539Z,2.85
2023-01-02T17:57:56.870Z,3.95
2023-01-02T18:00:23.353Z,2.58
2023-01-02T18:02:51.387Z,4.00
2023-01-02T18:05:17.867Z,1.63
2023-01-02T18:07:44.190Z,2.85
2023-01-02T18:10:13.581Z,2.38
2023-01-02T18:12:43.995Z,1.63
2023-01-02T18:15:13.564Z,2.17
2023-01-02T18:17:39.930Z,3.05
2023-01-02T18:20:11.743Z,1.77
2023-01-02T18:22:42.431Z,1.33
2023-01-02T18:25:21.640Z,2.45
2023-01-02T18:27:48.698Z,1.77
2023-01-02T18:30:19.662Z,2.80
2023-01-02T18:32:46.672Z,3.00
2023-01-02T18:38:35.856Z,4.15
2023-01-02T18:41:17.764Z,3.65
2023-01-02T18:43:45.317Z,3.03
2023-01-02T18:46:18.078Z,3.70
2023-01-02T18:48:44.929Z,2.80
2023-01-02T18:51:18.282Z,2.75
2023-01-02T18:53:50.368Z,3.60
2023-01-02T18:56:18.635Z,4.70
2023-01-02T18:58:57.581Z,4.72
2023-01-02T19:01:34.702Z,5.13
2023-01-02T19:04:27.714Z,4.70
2023-01-02T19:06:59.509Z,4.05
2023-01-02T19:12:18.641Z,3.60
2023-01-02T19:14:45.073Z,3.28
2023-01-02T19:17:26.670Z,3.35
2023-01-02T19:19:55.172Z,3.38
2023-01-02T19:22:24.629Z,3.35
2023-01-02T19:24:51.393Z,2.97
2023-01-02T19:27:37.052Z,3.00
2023-01-02T19:30:23.016Z,3.03
2023-01-02T19:32:49.329Z,3.50
2023-01-02T19:35:24.738Z,4.13
2023-01-02T19:37:51.814Z,3.20
2023-01-02T19:40:20.968Z,3.20
2023-01-02T19:42:48.933Z,2.90
2023-01-02T19:45:24.066Z,2.70
2023-01-02T19:47:51.241Z,2.47
2023-01-02T19:50:20.896Z,2.88
2023-01-02T19:52:47.291Z,3.28
2023-01-02T19:55:14.390Z,2.70
2023-01-02T19:57:40.828Z,2.90
2023-01-02T20:00:12.230Z,2.90
2023-01-02T20:02:40.411Z,2.88
2023-01-02T20:05:07.531Z,3.40
2023-01-02T20:07:33.902Z,3.15
2023-01-02T20:10:00.205Z,4.05
2023-01-02T20:12:40.081Z,3.33
2023-01-02T20:15:34.481Z,3.95
2023-01-02T20:18:08.321Z,3.45
2023-01-02T20:20:35.331Z,3.63
2023-01-02T20:23:01.649Z,3.92
2023-01-02T20:25:28.765Z,5.53
2023-01-02T20:27:56.286Z,5.03
2023-01-02T20:30:24.946Z,5.78
2023-01-02T20:32:54.484Z,5.05
2023-01-02T20:35:21.302Z,7.20
2023-01-02T20:37:49.890Z,7.07
2023-01-02T20:40:16.812Z,4.40
2023-01-02T20:42:43.230Z,4.68
2023-01-02T20:45:10.064Z,5.25
2023-01-02T20:47:37.053Z,5.55
2023-01-02T20:50:04.572Z,5.30
2023-01-02T20:52:30.892Z,5.40
2023-01-02T20:54:58.527Z,4.57
2023-01-02T20:57:24.858Z,5.53
2023-01-02T20:59:51.273Z,4.95
2023-01-02T21:02:17.845Z,5.72
2023-01-02T21:04:44.272Z,7.38
2023-01-02T21:07:10.679Z,6.18
2023-01-02T21:09:37.023Z,6.38
2023-01-02T21:12:03.450Z,6.13
2023-01-02T21:14:35.377Z,5.25
2023-01-02T21:17:03.680Z,5.10
2023-01-02T21:19:30.052Z,5.53
2023-01-02T21:21:56.497Z,4.97
2023-01-02T21:24:22.976Z,5.57
2023-01-02T21:26:49.367Z,5.30
2023-01-02T21:29:15.686Z,6.88
2023-01-02T21:31:41.979Z,5.07
2023-01-02T21:34:08.425Z,5.13
2023-01-02T21:36:36.183Z,5.40
2023-01-02T21:39:02.619Z,5.60
2023-01-02T21:41:47.357Z,6.20
2023-01-02T21:44:13.715Z,5.63
2023-01-02T21:46:40.105Z,5.50
2023-01-02T21:49:06.528Z,5.40
2023-01-02T21:51:33.300Z,5.03
2023-01-02T21:53:59.825Z,4.70
2023-01-02T21:56:26.232Z,8.02
2023-01-02T21:58:52.638Z,7.93
2023-01-02T22:01:19.097Z,5.13
2023-01-02T22:03:45.689Z,4.97
2023-01-02T22:06:12.070Z,4.72
2023-01-02T22:08:38.391Z,4.55
2023-01-02T22:11:23.461Z,4.60
2023-01-02T22:13:49.787Z,5.22
2023-01-02T22:16:16.180Z,5.53
2023-01-02T22:18:42.494Z,5.55
2023-01-02T22:21:08.818Z,5.78
2023-01-02T22:23:35.138Z,6.53
2023-01-02T22:26:01.448Z,6.30
2023-01-02T22:28:27.777Z,7.40
2023-01-02T22:30:54.147Z,8.27
2023-01-02T22:33:20.558Z,7.70
2023-01-02T22:35:46.956Z,6.88
2023-01-02T22:38:13.263Z,8.73
2023-01-02T22:40:39.691Z,8.60
2023-01-02T22:43:06.675Z,8.98
2023-01-02T22:45:48.716Z,8.50
2023-01-02T22:48:30.837Z,8.95
2023-01-02T22:51:00.266Z,9.35
2023-01-02T22:53:29.768Z,10.07
2023-01-02T22:55:56.743Z,8.40
2023-01-02T22:58:24.179Z,9.07
2023-01-02T23:00:59.181Z,9.30
2023-01-02T23:03:28.025Z,8.85
2023-01-02T23:05:54.324Z,9.68
2023-01-02T23:08:20.855Z,8.40
2023-01-02T23:10:47.202Z,8.35
2023-01-02T23:13:13.523Z,8.82
2023-01-02T23:15:59.933Z,9.10
2023-01-02T23:18:44.906Z,8.40
2023-01-02T23:21:12.385Z,9.18
2023-01-02T23:23:38.792Z,9.15
2023-01-02T23:26:06.252Z,9.38
2023-01-02T23:29:05.320Z,9.27
2023-01-02T23:31:19.000Z,10.30
2023-01-02T23:33:45.329Z,11.15
2023-01-02T23:36:11.783Z,11.00
2023-01-02T23:38:38.074Z,11.73
2023-01-02T23:41:04.493Z,11.23
2023-01-02T23:43:30.821Z,11.25
2023-01-02T23:45:57.175Z,10.73
2023-01-02T23:48:23.559Z,10.65
2023-01-02T23:50:57.826Z,8.85
2023-01-02T23:53:24.884Z,9.38
2023-01-02T23:55:51.212Z,7.78
2023-01-02T23:58:17.631Z,7.38
